createdAt,value
2022-10-27T00:01:20.451Z,17.38
2022-10-27T00:06:22.373Z,17.36
2022-10-27T00:11:24.278Z,17.31
2022-10-27T00:16:26.122Z,17.34
2022-10-27T00:21:28.056Z,17.46
2022-10-27T00:26:29.872Z,17.51
2022-10-27T00:31:31.669Z,17.55
2022-10-27T00:36:33.537Z,17.57
2022-10-27T00:41:39.321Z,17.65
2022-10-27T00:46:46.266Z,17.67
2022-10-27T00:51:54.158Z,17.71
2022-10-27T00:56:57.512Z,17.74
2022-10-27T01:07:06.523Z,17.78
2022-10-27T01:12:08.795Z,17.79
2022-10-27T01:17:19.614Z,17.83
2022-10-27T01:22:34.270Z,17.83
2022-10-27T01:27:57.820Z,17.80
2022-10-27T01:33:10.808Z,17.73
2022-10-27T01:38:17.193Z,17.67
2022-10-27T01:43:23.603Z,17.69
2022-10-27T01:48:25.744Z,17.63
2022-10-27T01:53:30.383Z,17.54
2022-10-27T01:58:38.274Z,17.55
2022-10-27T02:04:07.899Z,17.48
2022-10-27T02:09:22.380Z,17.38
2022-10-27T02:14:24.696Z,17.30
2022-10-27T02:19:33.486Z,17.28
2022-10-27T02:24:35.550Z,17.21
2022-10-27T02:29:42.260Z,17.20
2022-10-27T02:34:45.719Z,17.12
2022-10-27T02:39:47.955Z,17.15
2022-10-27T02:44:49.788Z,17.15
2022-10-27T02:49:51.628Z,17.09
2022-10-27T02:54:53.430Z,17.08
2022-10-27T02:59:55.221Z,17.01
2022-10-27T03:04:58.137Z,17.01
2022-10-27T03:09:59.987Z,17.03
2022-10-27T03:15:01.860Z,17.03
2022-10-27T03:20:04.179Z,16.97
2022-10-27T03:25:06.909Z,16.89
2022-10-27T03:30:10.909Z,16.80
2022-10-27T03:35:12.716Z,16.74
2022-10-27T03:40:14.545Z,16.75
2022-10-27T03:45:16.819Z,16.72
2022-10-27T03:50:18.606Z,16.69
2022-10-27T03:55:20.646Z,16.59
2022-10-27T04:00:22.983Z,16.60
2022-10-27T04:05:25.117Z,16.68
2022-10-27T04:10:26.975Z,16.66
2022-10-27T04:15:29.356Z,16.57
2022-10-27T04:20:31.548Z,16.61
2022-10-27T04:25:33.426Z,16.66
2022-10-27T04:30:35.877Z,16.60
2022-10-27T04:35:37.815Z,16.62
2022-10-27T04:40:39.652Z,16.63
2022-10-27T04:45:42.725Z,16.63
2022-10-27T04:50:44.522Z,16.57
2022-10-27T04:55:46.365Z,16.55
2022-10-27T05:00:48.769Z,16.52
2022-10-27T05:05:50.562Z,16.51
2022-10-27T05:10:52.354Z,16.51
2022-10-27T05:15:59.941Z,16.55
2022-10-27T05:21:01.749Z,16.56
2022-10-27T05:26:03.653Z,16.47
2022-10-27T05:31:05.706Z,16.46
2022-10-27T05:36:08.134Z,16.50
2022-10-27T05:41:10.469Z,16.49
2022-10-27T05:46:12.700Z,16.38
2022-10-27T05:51:16.771Z,16.27
2022-10-27T05:56:21.140Z,16.21
2022-10-27T06:01:23.070Z,16.24
2022-10-27T06:06:25.011Z,16.28
2022-10-27T06:11:27.328Z,16.31
2022-10-27T06:16:29.158Z,16.41
2022-10-27T06:21:31.027Z,16.54
2022-10-27T06:26:32.943Z,16.60
2022-10-27T06:31:34.764Z,16.72
2022-10-27T06:36:36.580Z,16.78
2022-10-27T06:41:39.201Z,16.80
2022-10-27T06:46:41.047Z,16.84
2022-10-27T06:51:42.994Z,16.95
2022-10-27T06:56:44.857Z,17.16
2022-10-27T07:01:46.801Z,17.40
2022-10-27T07:06:48.715Z,17.64
2022-10-27T07:11:50.545Z,17.77
2022-10-27T07:16:52.358Z,17.96
2022-10-27T07:21:54.596Z,18.25
2022-10-27T07:26:56.467Z,18.53
2022-10-27T07:31:58.411Z,18.83
2022-10-27T07:37:00.678Z,19.10
2022-10-27T07:42:02.516Z,19.32
2022-10-27T07:47:04.326Z,19.43
2022-10-27T07:52:06.124Z,19.55
2022-10-27T07:57:07.954Z,19.70
2022-10-27T08:02:11.968Z,19.99
2022-10-27T08:07:14.006Z,20.36
2022-10-27T08:12:16.054Z,20.76
2022-10-27T08:17:18.320Z,21.10
2022-10-27T08:22:20.176Z,21.37
2022-10-27T08:27:21.965Z,21.59
2022-10-27T08:32:23.793Z,21.68
2022-10-27T08:37:25.617Z,21.71
2022-10-27T08:42:42.262Z,21.90
2022-10-27T08:47:45.108Z,22.10
2022-10-27T08:52:54.401Z,22.33
2022-10-27T08:58:01.249Z,22.55
2022-10-27T09:03:18.359Z,22.67
2022-10-27T09:08:37.626Z,22.79
2022-10-27T09:19:27.759Z,22.94
2022-10-27T09:24:31.874Z,23.06
2022-10-27T09:29:36.528Z,23.27
2022-10-27T09:34:48.797Z,23.53
2022-10-27T09:39:52.780Z,23.64
2022-10-27T09:45:00.693Z,23.80
2022-10-27T09:50:06.192Z,23.93
2022-10-27T09:55:08.599Z,24.03
2022-10-27T10:00:16.437Z,24.02
2022-10-27T10:05:27.589Z,24.05
2022-10-27T10:10:30.332Z,23.91
2022-10-27T10:15:37.809Z,23.76
2022-10-27T10:25:51.190Z,23.90
2022-10-27T10:30:54.721Z,24.00
2022-10-27T10:35:58.444Z,24.01
2022-10-27T10:41:14.336Z,24.12
2022-10-27T10:46:24.745Z,24.30
2022-10-27T10:51:30.983Z,24.47
2022-10-27T10:56:36.740Z,24.63
2022-10-27T11:01:47.581Z,24.87
2022-10-27T11:07:05.637Z,25.03
2022-10-27T11:12:22.034Z,25.16
2022-10-27T11:17:26.002Z,25.09
2022-10-27T11:22:28.330Z,25.11
2022-10-27T11:28:01.040Z,25.20
2022-10-27T11:33:18.073Z,25.37
2022-10-27T11:38:47.451Z,25.58
2022-10-27T11:44:10.043Z,25.89
2022-10-27T11:49:22.725Z,26.01
2022-10-27T11:54:26.013Z,26.02
2022-10-27T12:00:00.682Z,26.14
2022-10-27T12:05:28.431Z,26.38
2022-10-27T12:10:30.295Z,26.41
2022-10-27T12:15:55.846Z,26.19
2022-10-27T12:21:04.079Z,26.21
2022-10-27T12:26:14.954Z,26.45
2022-10-27T12:31:23.937Z,26.69
2022-10-27T12:36:41.444Z,26.85
2022-10-27T12:41:55.113Z,26.97
2022-10-27T12:47:38.846Z,27.05
2022-10-27T12:53:15.783Z,27.37
2022-10-27T12:58:50.311Z,27.32
2022-10-27T13:04:25.786Z,27.80
2022-10-27T13:09:58.246Z,29.60
2022-10-27T13:15:35.337Z,31.77
2022-10-27T13:21:02.696Z,33.64
2022-10-27T13:26:16.407Z,35.09
2022-10-27T13:31:24.554Z,36.18
2022-10-27T13:36:27.949Z,35.85
2022-10-27T13:41:55.627Z,36.39
2022-10-27T13:47:18.267Z,37.17
2022-10-27T13:52:25.791Z,37.80
2022-10-27T13:57:39.589Z,37.85
2022-10-27T14:02:53.503Z,38.72
2022-10-27T14:07:55.644Z,38.88
2022-10-27T14:12:58.323Z,37.49
2022-10-27T14:18:00.411Z,33.94
2022-10-27T14:23:10.497Z,31.06
2022-10-27T14:28:16.707Z,29.19
2022-10-27T14:33:21.161Z,28.23
2022-10-27T14:38:23.199Z,27.29
2022-10-27T14:43:25.882Z,26.90
2022-10-27T14:48:33.289Z,26.59
2022-10-27T14:53:36.774Z,26.33
2022-10-27T14:58:38.592Z,26.04
2022-10-27T15:08:44.561Z,25.41
2022-10-27T15:13:47.266Z,25.17
2022-10-27T15:18:49.951Z,24.91
2022-10-27T15:23:59.857Z,24.66
2022-10-27T15:29:03.839Z,24.37
2022-10-27T15:34:22.364Z,24.09
2022-10-27T15:39:25.578Z,23.90
2022-10-27T15:44:27.522Z,23.68
2022-10-27T15:49:31.411Z,23.43
2022-10-27T15:54:34.679Z,23.17
2022-10-27T15:59:36.519Z,22.87
2022-10-27T16:04:40.149Z,22.62
2022-10-27T16:09:43.955Z,22.31
2022-10-27T16:14:55.917Z,21.88
2022-10-27T16:20:06.656Z,21.62
2022-10-27T16:25:12.451Z,21.42
2022-10-27T16:30:23.069Z,21.29
2022-10-27T16:35:24.889Z,21.26
2022-10-27T16:40:26.895Z,21.26
2022-10-27T16:45:29.058Z,21.20
2022-10-27T16:50:30.929Z,21.10
2022-10-27T16:55:32.724Z,21.04
2022-10-27T17:00:34.626Z,20.91
2022-10-27T17:05:37.290Z,20.82
2022-10-27T17:10:39.065Z,20.74
2022-10-27T17:15:40.867Z,20.65
2022-10-27T17:20:42.821Z,20.57
2022-10-27T17:25:44.640Z,20.51
2022-10-27T17:30:47.831Z,20.43
2022-10-27T17:36:01.357Z,20.39
2022-10-27T17:41:05.186Z,20.33
2022-10-27T17:46:13.309Z,20.31
2022-10-27T17:51:21.326Z,20.23
2022-10-27T17:56:25.465Z,20.13
2022-10-27T18:01:29.375Z,20.02
2022-10-27T18:06:33.169Z,19.92
2022-10-27T18:11:37.638Z,19.78
2022-10-27T18:16:41.438Z,19.61
2022-10-27T18:21:45.600Z,19.48
2022-10-27T18:26:48.422Z,19.42
2022-10-27T18:31:50.310Z,19.43
2022-10-27T18:36:52.149Z,19.41
2022-10-27T18:41:53.974Z,19.38
2022-10-27T18:46:55.791Z,19.33
2022-10-27T18:51:57.597Z,19.29
2022-10-27T18:56:59.774Z,19.25
2022-10-27T19:02:02.029Z,19.19
2022-10-27T19:07:04.177Z,19.00
2022-10-27T19:12:06.476Z,18.85
2022-10-27T19:17:08.638Z,18.82
2022-10-27T19:22:10.848Z,18.79
2022-10-27T19:27:13.216Z,18.76
2022-10-27T19:32:15.718Z,18.68
2022-10-27T19:37:18.245Z,18.52
2022-10-27T19:42:20.942Z,18.37
2022-10-27T19:47:23.086Z,18.07
2022-10-27T19:52:25.420Z,17.90
2022-10-27T19:57:27.939Z,17.71
2022-10-27T20:02:31.975Z,17.60
2022-10-27T20:07:35.945Z,17.53
2022-10-27T20:12:38.088Z,17.41
2022-10-27T20:17:40.154Z,17.38
2022-10-27T20:22:41.998Z,17.32
2022-10-27T20:27:43.859Z,17.28
2022-10-27T20:32:45.770Z,17.21
2022-10-27T20:37:47.604Z,17.06
2022-10-27T20:42:50.418Z,17.08
2022-10-27T20:47:55.408Z,17.08
2022-10-27T20:52:57.753Z,17.03
2022-10-27T20:57:59.610Z,17.08
2022-10-27T21:03:01.394Z,17.13
2022-10-27T21:08:03.300Z,17.18
2022-10-27T21:13:05.104Z,17.23
2022-10-27T21:18:07.985Z,17.18
2022-10-27T21:23:11.328Z,17.16
2022-10-27T21:28:13.104Z,17.19
2022-10-27T21:33:14.885Z,17.19
2022-10-27T21:38:16.694Z,17.19
2022-10-27T21:43:18.500Z,17.12
2022-10-27T21:48:20.271Z,17.12
2022-10-27T21:53:22.969Z,17.16
2022-10-27T21:58:26.622Z,17.13
2022-10-27T22:03:28.415Z,17.07
2022-10-27T22:08:30.602Z,16.97
2022-10-27T22:13:33.107Z,16.88
2022-10-27T22:18:35.752Z,16.84
2022-10-27T22:23:37.612Z,16.84
2022-10-27T22:28:40.372Z,16.80
2022-10-27T22:33:45.654Z,16.90
2022-10-27T22:38:53.249Z,16.88
2022-10-27T22:43:56.823Z,16.85
2022-10-27T22:48:59.147Z,16.77
2022-10-27T22:54:00.938Z,16.78
2022-10-27T22:59:04.420Z,16.73
2022-10-27T23:04:08.227Z,16.67
2022-10-27T23:09:18.619Z,16.68
2022-10-27T23:14:20.498Z,16.70
2022-10-27T23:19:22.284Z,16.72
2022-10-27T23:24:24.561Z,16.68
2022-10-27T23:29:26.310Z,16.65
2022-10-27T23:34:28.069Z,16.62
2022-10-27T23:39:29.808Z,16.60
2022-10-27T23:44:31.553Z,16.58
2022-10-27T23:49:33.337Z,16.63
2022-10-27T23:54:35.082Z,16.73
2022-10-27T23:59:36.821Z,16.75
